Time;durP1;ratioP1;P1;durP2;ratioP2;P2;SDS_P1;SDS_P2;PMS_P1;PMS_P2;Temp;Humidity;BMP_temperature;BMP_pressure;BME280_temperature;BME280_humidity;BME280_pressure;Samples;Min_cycle;Max_cycle;Signal;HPM_P1;HPM_P2
2023/02/28 00:00:21;;;;;;;4.00;1.90;;;;;;;1.59;100.00;100827.92;105647;1254;61673;-60
2023/02/28 00:02:50;;;;;;;3.60;2.10;;;;;;;1.58;100.00;100833.65;106297;1256;72973;-58
2023/02/28 00:05:21;;;;;;;2.80;1.80;;;;;;;1.56;100.00;100823.66;105750;1254;68671;-61
2023/02/28 00:07:50;;;;;;;3.20;1.80;;;;;;;1.55;100.00;100825.47;105724;1256;73156;-59
2023/02/28 00:10:23;;;;;;;3.00;1.80;;;;;;;1.53;100.00;100828.19;105910;1264;61731;-60
2023/02/28 00:12:56;;;;;;;3.60;2.10;;;;;;;1.51;100.00;100825.30;105648;1260;60879;-60
2023/02/28 00:15:25;;;;;;;3.00;1.80;;;;;;;1.49;100.00;100821.12;105705;1259;74313;-58
2023/02/28 00:17:54;;;;;;;3.80;2.50;;;;;;;1.48;100.00;100815.21;105648;1256;67626;-59
2023/02/28 00:20:23;;;;;;;4.30;2.20;;;;;;;1.46;100.00;100815.30;105841;1259;72885;-58
2023/02/28 00:22:52;;;;;;;3.90;2.20;;;;;;;1.45;100.00;100815.92;105780;1257;62883;-59
2023/02/28 00:25:24;;;;;;;3.10;1.90;;;;;;;1.44;100.00;100818.41;105585;1256;61859;-57
2023/02/28 00:27:52;;;;;;;3.50;2.30;;;;;;;1.43;100.00;100826.01;105722;1265;73385;-58
2023/02/28 00:30:22;;;;;;;3.40;2.10;;;;;;;1.43;100.00;100822.25;105883;1257;68976;-60
2023/02/28 00:32:51;;;;;;;3.60;2.10;;;;;;;1.44;100.00;100818.42;105719;1254;73991;-58
2023/02/28 00:35:19;;;;;;;3.50;2.30;;;;;;;1.43;100.00;100815.72;105704;1257;63360;-58
2023/02/28 00:37:49;;;;;;;3.00;1.80;;;;;;;1.41;100.00;100815.66;105832;1257;60547;-59
2023/02/28 00:40:17;;;;;;;3.80;2.30;;;;;;;1.39;100.00;100810.35;105543;1260;74321;-61
2023/02/28 00:42:47;;;;;;;3.90;2.30;;;;;;;1.38;100.00;100806.01;105990;1256;67772;-62
2023/02/28 00:45:16;;;;;;;3.10;1.80;;;;;;;1.37;100.00;100807.44;105568;1257;74385;-58
2023/02/28 00:47:46;;;;;;;4.90;2.80;;;;;;;1.36;100.00;100808.56;105867;1257;62620;-58
2023/02/28 00:50:17;;;;;;;4.40;2.50;;;;;;;1.35;100.00;100811.02;105856;1254;60800;-59
2023/02/28 00:52:49;;;;;;;3.90;2.60;;;;;;;1.35;100.00;100809.44;105713;1256;75560;-60
2023/02/28 00:55:18;;;;;;;4.60;2.60;;;;;;;1.34;100.00;100807.18;105793;1258;67037;-58
2023/02/28 00:57:47;;;;;;;4.70;2.90;;;;;;;1.32;100.00;100806.79;105689;1256;74472;-58
2023/02/28 01:00:15;;;;;;;3.30;2.00;;;;;;;1.30;100.00;100802.09;105740;1257;61730;-57
2023/02/28 01:02:44;;;;;;;4.30;3.00;;;;;;;1.30;100.00;100800.77;106140;1256;60945;-58
2023/02/28 01:05:12;;;;;;;4.80;3.00;;;;;;;1.29;100.00;100796.88;105780;1257;75000;-58
2023/02/28 01:07:42;;;;;;;4.70;3.10;;;;;;;1.28;100.00;100800.77;105755;1257;68300;-58
2023/02/28 01:10:10;;;;;;;6.30;3.50;;;;;;;1.28;100.00;100811.16;105758;1256;73230;-58
2023/02/28 01:12:41;;;;;;;5.20;3.20;;;;;;;1.29;100.00;100820.17;106043;1257;63106;-59
2023/02/28 01:15:12;;;;;;;5.00;3.70;;;;;;;1.29;100.00;100841.73;105548;1259;61088;-58
2023/02/28 01:17:41;;;;;;;5.10;3.80;;;;;;;1.29;100.00;100859.04;105536;1259;73341;-58
2023/02/28 01:20:11;;;;;;;6.40;4.10;;;;;;;1.30;100.00;100863.06;105824;1257;68545;-61
2023/02/28 01:22:40;;;;;;;6.10;4.10;;;;;;;1.33;100.00;100864.62;105787;1257;72314;-60
2023/02/28 01:25:08;;;;;;;5.00;3.70;;;;;;;1.34;100.00;100847.93;105603;1253;63360;-58
2023/02/28 01:27:39;;;;;;;6.00;4.20;;;;;;;1.34;100.00;100846.17;105841;1256;61860;-59
2023/02/28 01:30:08;;;;;;;6.60;4.50;;;;;;;1.34;100.00;100857.84;105662;1257;75321;-58
2023/02/28 01:32:39;;;;;;;7.40;5.30;;;;;;;1.34;100.00;100871.86;105945;1256;68960;-57
2023/02/28 01:35:08;;;;;;;7.60;5.50;;;;;;;1.32;100.00;100873.72;105816;1266;73358;-58
2023/02/28 01:37:38;;;;;;;8.90;6.60;;;;;;;1.31;100.00;100873.77;105750;1255;60972;-59
2023/02/28 01:40:08;;;;;;;7.40;5.50;;;;;;;1.33;100.00;100873.48;105886;1254;61865;-58
2023/02/28 01:42:36;;;;;;;8.60;6.20;;;;;;;1.35;100.00;100875.92;105862;1256;74821;-58
2023/02/28 01:45:05;;;;;;;9.20;6.90;;;;;;;1.34;100.00;100876.13;105620;1257;68708;-58
2023/02/28 01:47:39;;;;;;;8.90;6.80;;;;;;;1.35;100.00;100882.20;105875;1257;74247;-58
2023/02/28 01:50:12;;;;;;;8.90;6.40;;;;;;;1.36;100.00;100883.17;106125;1258;62053;-62
2023/02/28 01:52:41;;;;;;;10.60;7.50;;;;;;;1.34;100.00;100886.78;105702;1253;61869;-59
2023/02/28 01:55:11;;;;;;;9.40;6.70;;;;;;;1.31;100.00;100883.86;105918;1257;74347;-58
2023/02/28 01:57:46;;;;;;;10.20;7.10;;;;;;;1.30;100.00;100874.02;105679;1257;68656;-58
2023/02/28 02:00:17;;;;;;;10.50;8.00;;;;;;;1.30;100.00;100870.45;105739;1260;73555;-58
2023/02/28 02:02:51;;;;;;;10.20;7.90;;;;;;;1.27;100.00;100883.16;106221;1253;61689;-58
2023/02/28 02:05:21;;;;;;;12.40;8.80;;;;;;;1.25;100.00;100891.84;105840;1260;60763;-59
2023/02/28 02:07:55;;;;;;;12.00;8.60;;;;;;;1.25;100.00;100894.09;105993;1256;74272;-58
2023/02/28 02:10:29;;;;;;;11.20;9.00;;;;;;;1.23;100.00;100891.14;105800;1254;69117;-58
2023/02/28 02:13:20;;;;;;;12.90;10.00;;;;;;;1.20;100.00;100892.66;105778;1257;74006;-57
2023/02/28 02:15:54;;;;;;;12.50;9.10;;;;;;;1.19;100.00;100887.76;105839;1257;61589;-58
2023/02/28 02:18:34;;;;;;;13.00;9.60;;;;;;;1.17;100.00;100881.40;105733;1255;61751;-57
2023/02/28 02:21:26;;;;;;;13.40;10.10;;;;;;;1.16;100.00;100885.91;105828;1264;73963;-62
2023/02/28 02:24:14;;;;;;;14.70;11.10;;;;;;;1.15;100.00;100886.73;105825;1254;68599;-57
2023/02/28 02:26:58;;;;;;;14.80;9.90;;;;;;;1.12;100.00;100882.60;105907;1257;73155;-59
2023/02/28 02:30:05;;;;;;;12.40;9.30;;;;;;;1.11;100.00;100885.66;105626;1254;63177;-57
2023/02/28 02:32:49;;;;;;;12.10;8.90;;;;;;;1.10;100.00;100897.02;105492;1254;60665;-58
2023/02/28 02:35:40;;;;;;;14.60;10.90;;;;;;;1.08;100.00;100897.79;105769;1253;75328;-58
2023/02/28 02:38:25;;;;;;;13.90;10.30;;;;;;;1.08;100.00;100887.59;105690;1256;67474;-59
2023/02/28 02:41:07;;;;;;;15.10;10.70;;;;;;;1.05;100.00;100886.91;106018;1255;74347;-61
2023/02/28 02:43:41;;;;;;;13.70;10.10;;;;;;;1.05;100.00;100895.80;105525;1258;62158;-58
2023/02/28 02:46:35;;;;;;;17.60;12.70;;;;;;;1.05;100.00;100907.09;105700;1254;61675;-57
2023/02/28 02:49:06;;;;;;;15.80;11.60;;;;;;;1.07;100.00;100910.75;105916;1255;74231;-61
2023/02/28 02:51:36;;;;;;;15.80;11.50;;;;;;;1.09;100.00;100917.23;105566;1254;68448;-58
2023/02/28 02:54:08;;;;;;;17.00;12.80;;;;;;;1.12;100.00;100928.02;105564;1264;74001;-58
2023/02/28 02:56:37;;;;;;;16.70;11.90;;;;;;;1.14;100.00;100922.92;105611;1254;60533;-57
2023/02/28 02:59:09;;;;;;;17.00;12.10;;;;;;;1.15;100.00;100909.80;105763;1253;61937;-58
2023/02/28 03:01:42;;;;;;;16.40;11.20;;;;;;;1.15;100.00;100901.27;105400;1254;75610;-57
2023/02/28 03:04:14;;;;;;;17.00;12.30;;;;;;;1.11;100.00;100905.52;105729;1260;68761;-58
2023/02/28 03:06:42;;;;;;;14.50;11.20;;;;;;;1.06;100.00;100912.02;105725;1254;74134;-58
2023/02/28 03:09:11;;;;;;;17.00;12.10;;;;;;;1.01;100.00;100914.21;105593;1260;61698;-57
2023/02/28 03:11:40;;;;;;;16.70;12.40;;;;;;;0.95;100.00;100914.42;105866;1257;61866;-59
2023/02/28 03:14:27;;;;;;;16.10;12.30;;;;;;;0.91;100.00;100918.85;105888;1257;75259;-62
2023/02/28 03:17:14;;;;;;;17.70;12.60;;;;;;;0.87;100.00;100923.37;105744;1260;66449;-57
2023/02/28 03:20:08;;;;;;;18.60;13.40;;;;;;;0.87;100.00;100927.00;105581;1254;73186;-61
2023/02/28 03:22:56;;;;;;;18.80;14.10;;;;;;;0.86;100.00;100929.12;105627;1254;62572;-57
2023/02/28 03:25:34;;;;;;;21.70;14.80;;;;;;;0.87;100.00;100929.88;105550;1270;60396;-57
2023/02/28 03:28:08;;;;;;;18.70;13.00;;;;;;;0.88;100.00;100931.73;105744;1254;74260;-59
2023/02/28 03:30:53;;;;;;;21.10;14.60;;;;;;;0.88;100.00;100931.17;105500;1254;67638;-58
2023/02/28 03:33:54;;;;;;;20.20;14.10;;;;;;;0.88;100.00;100931.73;105678;1254;74264;-57
2023/02/28 03:36:27;;;;;;;21.90;13.50;;;;;;;0.84;100.00;100934.90;105780;1254;61807;-58
2023/02/28 03:39:02;;;;;;;19.90;13.90;;;;;;;0.81;100.00;100926.67;105655;1255;60746;-57
2023/02/28 03:41:35;;;;;;;18.10;12.90;;;;;;;0.78;100.00;100922.96;105553;1259;75382;-57
2023/02/28 03:44:19;;;;;;;17.20;12.50;;;;;;;0.74;100.00;100927.48;105630;1254;68963;-58
2023/02/28 03:46:52;;;;;;;16.60;11.30;;;;;;;0.73;100.00;100932.19;105386;1258;74593;-57
2023/02/28 03:49:27;;;;;;;18.00;12.00;;;;;;;0.72;100.00;100932.11;105560;1254;61684;-57
2023/02/28 03:51:56;;;;;;;16.40;11.90;;;;;;;0.71;100.00;100934.85;105624;1260;62188;-59
2023/02/28 03:54:28;;;;;;;16.80;11.40;;;;;;;0.71;100.00;100939.80;105600;1254;74219;-57
2023/02/28 03:57:05;;;;;;;17.20;12.20;;;;;;;0.72;100.00;100944.06;105467;1254;68733;-58
2023/02/28 03:59:41;;;;;;;16.20;11.20;;;;;;;0.71;100.00;100956.08;105296;1254;74236;-59
2023/02/28 04:02:10;;;;;;;16.10;11.40;;;;;;;0.69;100.00;100958.45;105361;1254;62618;-57
2023/02/28 04:04:44;;;;;;;17.80;12.20;;;;;;;0.68;100.00;100963.11;105579;1257;61784;-58
2023/02/28 04:07:13;;;;;;;17.70;11.50;;;;;;;0.70;100.00;100963.67;105690;1254;74846;-58
2023/02/28 04:09:42;;;;;;;16.70;11.60;;;;;;;0.67;100.00;100962.70;105814;1257;67332;-62
2023/02/28 04:12:17;;;;;;;16.50;11.70;;;;;;;0.64;100.00;100970.95;105510;1260;73418;-58
2023/02/28 04:14:46;;;;;;;16.60;11.70;;;;;;;0.63;100.00;100974.23;105855;1255;61858;-58
2023/02/28 04:17:18;;;;;;;17.10;12.10;;;;;;;0.63;100.00;100973.07;105692;1254;61824;-58
2023/02/28 04:19:47;;;;;;;19.10;12.60;;;;;;;0.62;100.00;100970.23;105808;1256;75264;-57
2023/02/28 04:22:17;;;;;;;19.10;13.10;;;;;;;0.60;100.00;100979.10;105986;1254;68723;-62
2023/02/28 04:24:46;;;;;;;17.00;11.60;;;;;;;0.58;100.00;100980.20;105751;1254;73308;-58
2023/02/28 04:27:15;;;;;;;17.60;12.10;;;;;;;0.57;100.00;100982.02;105813;1257;61666;-61
2023/02/28 04:29:44;;;;;;;15.70;11.00;;;;;;;0.57;100.00;100979.63;105712;1257;60328;-58
2023/02/28 04:32:13;;;;;;;17.50;12.60;;;;;;;0.57;100.00;100983.73;106053;1253;75419;-60
2023/02/28 04:34:42;;;;;;;16.00;11.80;;;;;;;0.55;100.00;100991.36;105660;1257;68310;-57
2023/02/28 04:37:11;;;;;;;16.80;10.80;;;;;;;0.55;100.00;100999.60;106119;1254;73919;-58
2023/02/28 04:39:42;;;;;;;;;;;;;;;0.56;100.00;100998.52;105498;1257;62927;-56
2023/02/28 04:42:11;;;;;;;19.40;12.80;;;;;;;0.58;100.00;101002.64;105683;1253;61439;-61
2023/02/28 04:44:39;;;;;;;19.10;13.80;;;;;;;0.61;100.00;101005.89;105767;1254;74890;-57
2023/02/28 04:47:08;;;;;;;21.20;15.00;;;;;;;0.63;100.00;101012.58;105962;1257;67698;-57
2023/02/28 04:49:38;;;;;;;20.20;14.40;;;;;;;0.65;100.00;101015.34;105783;1253;74184;-56
2023/02/28 04:52:07;;;;;;;18.00;11.70;;;;;;;0.67;100.00;101022.86;105927;1257;62165;-57
2023/02/28 04:54:41;;;;;;;18.30;12.50;;;;;;;0.67;100.00;101027.66;105719;1254;60657;-56
2023/02/28 04:57:10;;;;;;;21.10;14.80;;;;;;;0.68;100.00;101030.52;105967;1253;75217;-62
2023/02/28 04:59:39;;;;;;;18.90;12.70;;;;;;;0.71;100.00;101037.00;105780;1254;67512;-57
2023/02/28 05:02:08;;;;;;;17.00;12.10;;;;;;;0.72;100.00;101045.34;105909;1258;73216;-57
2023/02/28 05:04:37;;;;;;;16.60;12.00;;;;;;;0.73;100.00;101051.23;105660;1254;62455;-58
2023/02/28 05:07:06;;;;;;;15.60;11.00;;;;;;;0.73;100.00;101055.66;106091;1257;61894;-61
2023/02/28 05:09:34;;;;;;;17.30;12.30;;;;;;;0.73;100.00;101061.02;105529;1257;74196;-57
2023/02/28 05:12:06;;;;;;;15.40;9.80;;;;;;;0.74;100.00;101066.23;105747;1254;69119;-56
2023/02/28 05:14:36;;;;;;;14.00;9.60;;;;;;;0.72;100.00;101073.56;105779;1257;73546;-59
2023/02/28 05:17:05;;;;;;;16.90;11.20;;;;;;;0.66;100.00;101079.24;105994;1256;62511;-61
2023/02/28 05:19:35;;;;;;;12.90;9.80;;;;;;;0.62;100.00;101078.98;105739;1254;62116;-56
2023/02/28 05:22:03;;;;;;;16.10;10.90;;;;;;;0.60;100.00;101082.36;105807;1254;74355;-57
2023/02/28 05:24:39;;;;;;;15.10;11.30;;;;;;;0.58;100.00;101088.70;105832;1257;68497;-58
2023/02/28 05:27:09;;;;;;;14.70;10.30;;;;;;;0.58;100.00;101096.55;105946;1256;73195;-60
2023/02/28 05:29:41;;;;;;;13.30;8.90;;;;;;;0.60;100.00;101098.11;105944;1256;62044;-58
2023/02/28 05:32:10;;;;;;;15.90;11.10;;;;;;;0.60;100.00;101092.63;105797;1256;60729;-56
2023/02/28 05:34:39;;;;;;;14.10;10.50;;;;;;;0.60;100.00;101085.42;105700;1256;75007;-60
2023/02/28 05:37:11;;;;;;;15.10;10.90;;;;;;;0.61;100.00;101089.34;105940;1258;67731;-57
2023/02/28 05:39:41;;;;;;;17.40;11.60;;;;;;;0.61;100.00;101089.88;105658;1254;74133;-56
2023/02/28 05:42:10;;;;;;;14.20;10.30;;;;;;;0.62;100.00;101087.23;105749;1253;61663;-56
2023/02/28 05:44:39;;;;;;;15.50;11.00;;;;;;;0.63;100.00;101084.40;105737;1256;62268;-56
2023/02/28 05:47:10;;;;;;;14.60;10.10;;;;;;;0.64;100.00;101085.04;105763;1253;75534;-61
2023/02/28 05:49:39;;;;;;;17.20;11.60;;;;;;;0.62;100.00;101090.13;105568;1253;67835;-58
2023/02/28 05:52:07;;;;;;;19.40;13.50;;;;;;;0.58;100.00;101091.73;105736;1253;73340;-58
2023/02/28 05:54:36;;;;;;;14.80;10.10;;;;;;;0.56;100.00;101088.48;105817;1254;60852;-56
2023/02/28 05:57:05;;;;;;;15.80;10.60;;;;;;;0.55;100.00;101088.88;105955;1253;62158;-56
2023/02/28 05:59:50;;;;;;;15.40;10.40;;;;;;;0.56;100.00;101092.56;105825;1256;75386;-57
2023/02/28 06:02:19;;;;;;;13.70;10.00;;;;;;;0.56;100.00;101094.42;105891;1257;69234;-58
2023/02/28 06:04:48;;;;;;;13.50;9.70;;;;;;;0.55;100.00;101099.09;105837;1256;72415;-56
2023/02/28 06:07:17;;;;;;;16.00;10.20;;;;;;;0.54;100.00;101100.41;105775;1254;62371;-57
2023/02/28 06:09:46;;;;;;;14.60;10.30;;;;;;;0.52;100.00;101103.74;105764;1253;61103;-56
2023/02/28 06:12:15;;;;;;;16.90;11.50;;;;;;;0.54;100.00;101106.73;105966;1257;75354;-59
2023/02/28 06:14:44;;;;;;;15.90;11.00;;;;;;;0.56;100.00;101111.20;105816;1254;68081;-56
2023/02/28 06:17:16;;;;;;;14.90;10.50;;;;;;;0.57;100.00;101112.66;105727;1254;74252;-56
2023/02/28 06:19:45;;;;;;;14.10;10.00;;;;;;;0.61;100.00;101113.64;105585;1254;63070;-58
2023/02/28 06:22:14;;;;;;;13.90;10.30;;;;;;;0.62;100.00;101111.84;105880;1254;61275;-58
2023/02/28 06:24:42;;;;;;;13.60;9.40;;;;;;;0.61;100.00;101109.33;105893;1253;75243;-57
2023/02/28 06:27:11;;;;;;;13.00;10.00;;;;;;;0.62;100.00;101104.98;105847;1257;67652;-59
2023/02/28 06:29:40;;;;;;;14.30;9.90;;;;;;;0.64;100.00;101105.19;105677;1257;74133;-58
2023/02/28 06:32:09;;;;;;;13.60;9.40;;;;;;;0.63;100.00;101102.14;105984;1255;61721;-59
2023/02/28 06:34:39;;;;;;;12.20;8.30;;;;;;;0.63;100.00;101099.14;105872;1256;61901;-58
2023/02/28 06:37:07;;;;;;;14.30;10.00;;;;;;;0.61;100.00;101096.34;105854;1253;75372;-58
2023/02/28 06:39:38;;;;;;;14.20;9.30;;;;;;;0.58;100.00;101104.41;105755;1253;67707;-58
2023/02/28 06:42:07;;;;;;;14.20;10.20;;;;;;;0.54;100.00;101107.88;105721;1253;74273;-58
2023/02/28 06:44:36;;;;;;;14.30;9.40;;;;;;;0.53;100.00;101110.88;105745;1254;62287;-59
2023/02/28 06:47:05;;;;;;;14.60;9.80;;;;;;;0.54;100.00;101105.70;105634;1254;61651;-59
2023/02/28 06:49:38;;;;;;;13.70;8.80;;;;;;;0.53;100.00;101099.44;105660;1254;73367;-59
2023/02/28 06:52:09;;;;;;;12.80;9.00;;;;;;;0.55;100.00;101089.55;105700;1253;68785;-59
2023/02/28 06:54:38;;;;;;;16.00;10.60;;;;;;;0.60;100.00;101081.34;105608;1254;72945;-59
2023/02/28 06:57:07;;;;;;;15.10;10.50;;;;;;;0.68;100.00;101077.41;105856;1254;63058;-58
2023/02/28 06:59:36;;;;;;;13.50;8.50;;;;;;;0.74;100.00;101081.13;105854;1253;60633;-59
2023/02/28 07:02:06;;;;;;;14.30;9.70;;;;;;;0.76;100.00;101086.98;105787;1253;75426;-58
2023/02/28 07:04:35;;;;;;;13.70;9.70;;;;;;;0.78;100.00;101093.06;105668;1256;68569;-58
2023/02/28 07:07:03;;;;;;;15.40;9.90;;;;;;;0.81;100.00;101089.27;105980;1256;74029;-57
2023/02/28 07:09:32;;;;;;;12.40;8.20;;;;;;;0.84;100.00;101086.79;106003;1257;60443;-60
2023/02/28 07:12:00;;;;;;;14.60;10.20;;;;;;;0.90;100.00;101086.61;105606;1254;60591;-56
2023/02/28 07:14:29;;;;;;;15.40;10.70;;;;;;;0.95;100.00;101087.63;105610;1254;74069;-58
2023/02/28 07:16:58;;;;;;;16.40;10.80;;;;;;;1.04;100.00;101088.05;105918;1256;67704;-59
2023/02/28 07:19:29;;;;;;;13.90;9.70;;;;;;;1.17;100.00;101089.23;106053;1256;73148;-62
2023/02/28 07:21:58;;;;;;;16.20;10.40;;;;;;;1.29;100.00;101094.63;105840;1253;62499;-58
2023/02/28 07:24:28;;;;;;;13.90;9.70;;;;;;;1.43;100.00;101095.23;105833;1254;61890;-57
2023/02/28 07:26:57;;;;;;;15.40;10.10;;;;;;;1.58;100.00;101093.36;105812;1253;75372;-57
2023/02/28 07:29:25;;;;;;;13.50;9.80;;;;;;;1.68;100.00;101094.54;105897;1254;68514;-57
2023/02/28 07:31:55;;;;;;;16.00;10.40;;;;;;;1.73;100.00;101096.79;105819;1256;74190;-59
2023/02/28 07:34:23;;;;;;;19.90;12.40;;;;;;;1.75;100.00;101100.59;105719;1256;62869;-57
2023/02/28 07:36:57;;;;;;;20.70;12.60;;;;;;;1.87;100.00;101100.09;105860;1254;60352;-58
2023/02/28 07:39:26;;;;;;;17.70;11.60;;;;;;;2.01;100.00;101101.17;105789;1253;75345;-58
2023/02/28 07:41:54;;;;;;;15.60;10.50;;;;;;;2.00;100.00;101102.31;105711;1256;68095;-57
2023/02/28 07:44:26;;;;;;;16.30;11.10;;;;;;;1.93;100.00;101094.02;105709;1254;74666;-56
2023/02/28 07:46:55;;;;;;;15.20;9.70;;;;;;;1.87;100.00;101090.36;105817;1254;61871;-57
2023/02/28 07:49:26;;;;;;;17.00;11.10;;;;;;;1.89;100.00;101086.61;105597;1254;61821;-58
2023/02/28 07:51:54;;;;;;;26.10;12.80;;;;;;;2.01;100.00;101087.34;105740;1256;72708;-57
2023/02/28 07:54:24;;;;;;;18.90;11.50;;;;;;;2.17;100.00;101082.60;105865;1256;68647;-58
2023/02/28 07:56:53;;;;;;;16.00;9.70;;;;;;;2.33;100.00;101085.58;105868;1254;74294;-58
2023/02/28 07:59:22;;;;;;;18.20;10.20;;;;;;;2.47;100.00;101084.76;106010;1256;62500;-57
2023/02/28 08:01:51;;;;;;;15.30;10.40;;;;;;;2.66;100.00;101086.60;105830;1256;61083;-55
2023/02/28 08:04:20;;;;;;;22.50;13.20;;;;;;;2.80;100.00;101086.43;105609;1254;74650;-58
2023/02/28 08:07:09;;;;;;;16.20;9.90;;;;;;;2.95;100.00;101084.18;105636;1257;68630;-59
2023/02/28 08:09:41;;;;;;;16.70;10.50;;;;;;;2.97;100.00;101079.25;105771;1257;73196;-57
2023/02/28 08:12:10;;;;;;;15.90;9.90;;;;;;;2.97;100.00;101077.80;105666;1254;62361;-56
2023/02/28 08:14:39;;;;;;;13.50;9.60;;;;;;;2.99;100.00;101073.87;105773;1257;62079;-57
2023/02/28 08:17:09;;;;;;;19.20;10.70;;;;;;;3.00;100.00;101073.31;105953;1254;75143;-61
2023/02/28 08:19:38;;;;;;;14.10;9.80;;;;;;;2.99;100.00;101068.23;105726;1260;67730;-57
2023/02/28 08:22:11;;;;;;;14.00;9.60;;;;;;;3.01;100.00;101062.94;105743;1254;74217;-57
2023/02/28 08:24:42;;;;;;;14.60;10.60;;;;;;;3.11;100.00;101060.61;105888;1256;61373;-58
2023/02/28 08:27:10;;;;;;;22.30;15.00;;;;;;;3.19;100.00;101061.41;105632;1253;62214;-57
2023/02/28 08:29:39;;;;;;;16.30;11.20;;;;;;;3.26;100.00;101067.09;105791;1256;75416;-58
2023/02/28 08:32:08;;;;;;;15.40;9.90;;;;;;;3.29;100.00;101072.17;105861;1256;68835;-57
2023/02/28 08:34:55;;;;;;;13.30;9.80;;;;;;;3.26;100.00;101069.31;105225;1257;317146;-57
2023/02/28 08:37:24;;;;;;;11.80;8.80;;;;;;;3.22;100.00;101074.77;105580;1254;63383;-58
2023/02/28 08:39:53;;;;;;;11.10;8.30;;;;;;;3.24;100.00;101078.93;105821;1253;61893;-58
2023/02/28 08:42:24;;;;;;;15.40;10.60;;;;;;;3.32;100.00;101077.64;105771;1254;75353;-59
2023/02/28 08:44:53;;;;;;;12.20;8.40;;;;;;;3.40;100.00;101077.35;105898;1254;67556;-58
2023/02/28 08:47:22;;;;;;;16.50;10.00;;;;;;;3.45;100.00;101076.13;105838;1254;74218;-58
2023/02/28 08:49:50;;;;;;;19.40;12.20;;;;;;;3.44;100.00;101075.34;105913;1253;61095;-56
2023/02/28 08:52:19;;;;;;;16.60;10.90;;;;;;;3.49;100.00;101078.41;105908;1253;60539;-61
2023/02/28 08:54:48;;;;;;;21.60;14.00;;;;;;;3.55;100.00;101078.27;106062;1253;74184;-57
2023/02/28 08:57:16;;;;;;;19.00;10.10;;;;;;;3.55;100.00;101080.16;105536;1253;68619;-58
2023/02/28 08:59:45;;;;;;;12.90;8.80;;;;;;;3.45;100.00;101079.34;105537;1254;73502;-57
2023/02/28 09:02:14;;;;;;;16.40;10.90;;;;;;;3.30;100.00;101076.36;106040;1254;61758;-57
2023/02/28 09:04:47;;;;;;;18.10;11.30;;;;;;;3.28;100.00;101071.05;105809;1253;61588;-57
2023/02/28 09:07:16;;;;;;;15.20;10.30;;;;;;;3.36;100.00;101075.41;105764;1257;73611;-58
2023/02/28 09:09:56;;;;;;;16.10;10.60;;;;;;;3.48;100.00;101074.30;105798;1256;68996;-61
2023/02/28 09:12:25;;;;;;;24.50;15.10;;;;;;;3.56;100.00;101067.17;105652;1257;72628;-57
2023/02/28 09:14:54;;;;;;;19.00;12.00;;;;;;;3.56;100.00;101066.64;105709;1254;63510;-58
2023/02/28 09:17:22;;;;;;;15.70;10.30;;;;;;;3.61;100.00;101063.00;105699;1253;61737;-58
2023/02/28 09:19:58;;;;;;;13.80;9.40;;;;;;;3.70;100.00;101064.27;105569;1253;74292;-58
2023/02/28 09:22:26;;;;;;;15.70;10.00;;;;;;;3.78;100.00;101059.00;105632;1253;68622;-59
2023/02/28 09:24:55;;;;;;;14.50;10.10;;;;;;;3.89;100.00;101055.67;105519;1253;74788;-58
2023/02/28 09:27:24;;;;;;;13.10;9.20;;;;;;;4.03;100.00;101044.58;105764;1254;61714;-62
2023/02/28 09:29:53;;;;;;;13.40;9.60;;;;;;;4.11;100.00;101037.43;105610;1256;61427;-59
2023/02/28 09:32:21;;;;;;;17.40;10.00;;;;;;;4.08;100.00;101038.00;105867;1253;75216;-57
2023/02/28 09:34:50;;;;;;;13.10;9.10;;;;;;;4.11;100.00;101036.42;105875;1256;66493;-58
2023/02/28 09:37:19;;;;;;;12.40;8.60;;;;;;;4.21;100.00;101031.48;105803;1256;74054;-56
2023/02/28 09:39:47;;;;;;;13.60;8.40;;;;;;;4.31;100.00;101028.11;105561;1254;63798;-57
2023/02/28 09:42:22;;;;;;;12.80;8.80;;;;;;;4.38;100.00;101027.34;105853;1256;61290;-57
2023/02/28 09:44:51;;;;;;;12.10;8.70;;;;;;;4.46;100.00;101022.10;105710;1252;74333;-57
2023/02/28 09:47:44;;;;;;;12.60;8.90;;;;;;;4.51;100.00;101021.52;105989;1254;67852;-62
2023/02/28 09:50:35;;;;;;;15.80;10.10;;;;;;;4.49;100.00;101018.89;105503;1254;73876;-59
2023/02/28 09:53:10;;;;;;;20.10;12.00;;;;;;;4.47;100.00;101018.05;105551;1254;63394;-57
2023/02/28 09:55:44;;;;;;;12.60;8.80;;;;;;;4.51;100.00;101020.48;105959;1254;61754;-56
2023/02/28 09:58:30;;;;;;;13.60;10.30;;;;;;;4.56;100.00;101021.09;105699;1256;74666;-56
2023/02/28 10:01:04;;;;;;;11.70;8.90;;;;;;;4.56;100.00;101018.80;105802;1254;68499;-56
2023/02/28 10:03:37;;;;;;;11.40;8.20;;;;;;;4.60;100.00;101015.57;105835;1253;74506;-57
2023/02/28 10:06:17;;;;;;;14.20;10.00;;;;;;;4.57;100.00;101010.88;105807;1254;61818;-56
2023/02/28 10:09:01;;;;;;;14.10;10.10;;;;;;;4.38;100.00;101010.48;105423;1259;62139;-57
2023/02/28 10:11:32;;;;;;;12.70;9.10;;;;;;;4.23;100.00;101004.32;105645;1259;74094;-55
2023/02/28 10:14:05;;;;;;;13.70;9.50;;;;;;;4.13;100.00;101001.28;105764;1254;68557;-63
2023/02/28 10:16:46;;;;;;;12.10;8.80;;;;;;;4.08;100.00;100998.98;105593;1253;73787;-60
2023/02/28 10:19:17;;;;;;;16.30;9.60;;;;;;;4.07;100.00;100996.30;105539;1254;62093;-57
2023/02/28 10:21:54;;;;;;;13.10;8.70;;;;;;;4.16;100.00;100996.14;106049;1253;60576;-57
2023/02/28 10:24:30;;;;;;;12.50;9.30;;;;;;;4.25;100.00;100989.88;105969;1254;73993;-60
2023/02/28 10:27:15;;;;;;;13.60;9.70;;;;;;;4.34;100.00;100990.55;105862;1254;68686;-56
2023/02/28 10:29:48;;;;;;;19.40;12.00;;;;;;;4.43;100.00;100985.18;105793;1254;72693;-59
2023/02/28 10:32:18;;;;;;;14.70;11.10;;;;;;;4.46;100.00;100982.03;105683;1256;61884;-57
2023/02/28 10:35:09;;;;;;;12.00;8.20;;;;;;;4.60;100.00;100981.35;105720;1258;60832;-56
2023/02/28 10:37:39;;;;;;;10.80;8.10;;;;;;;4.76;100.00;100973.98;105571;1259;75461;-57
2023/02/28 10:40:17;;;;;;;12.90;9.00;;;;;;;4.85;100.00;100978.05;105807;1254;67066;-56
2023/02/28 10:42:59;;;;;;;12.20;8.60;;;;;;;4.97;100.00;100972.77;105622;1257;72948;-61
2023/02/28 10:45:30;;;;;;;10.50;7.60;;;;;;;5.12;100.00;100970.95;105693;1253;63587;-56
2023/02/28 10:48:26;;;;;;;11.50;8.40;;;;;;;5.28;100.00;100968.38;105458;1254;61243;-56
2023/02/28 10:50:57;;;;;;;11.90;8.50;;;;;;;5.48;100.00;100964.62;105889;1259;75365;-56
2023/02/28 10:53:39;;;;;;;12.20;9.20;;;;;;;5.65;100.00;100964.83;105471;1254;68196;-56
2023/02/28 10:56:27;;;;;;;11.90;9.10;;;;;;;5.73;100.00;100964.20;105656;1259;74285;-56
2023/02/28 10:59:27;;;;;;;11.70;9.40;;;;;;;5.90;100.00;100960.73;105768;1254;60807;-56
2023/02/28 11:01:56;;;;;;;11.10;8.50;;;;;;;6.34;100.00;100949.95;105712;1257;60893;-56
2023/02/28 11:04:29;;;;;;;11.60;8.40;;;;;;;6.77;100.00;100956.30;105444;1259;75350;-56
2023/02/28 11:06:58;;;;;;;9.70;7.80;;;;;;;7.15;100.00;100955.98;105819;1257;67769;-56
2023/02/28 11:09:30;;;;;;;11.20;9.00;;;;;;;7.41;100.00;100950.97;105778;1257;73390;-57
2023/02/28 11:12:03;;;;;;;12.30;9.60;;;;;;;7.49;100.00;100951.94;105477;1259;61920;-56
2023/02/28 11:14:39;;;;;;;12.10;9.30;;;;;;;7.42;100.00;100953.29;105601;1257;60623;-56
2023/02/28 11:17:21;;;;;;;11.10;8.80;;;;;;;7.29;100.00;100953.84;105455;1259;74407;-55
2023/02/28 11:19:56;;;;;;;11.10;8.40;;;;;;;7.20;100.00;100955.91;105412;1257;68543;-56
2023/02/28 11:22:28;;;;;;;11.30;8.50;;;;;;;7.06;100.00;100954.75;105492;1257;74547;-56
2023/02/28 11:25:00;;;;;;;11.80;9.50;;;;;;;6.82;100.00;100954.91;105316;1261;60635;-59
2023/02/28 11:27:30;;;;;;;12.40;10.00;;;;;;;6.61;100.00;100957.73;105620;1255;60931;-58
2023/02/28 11:29:59;;;;;;;11.70;9.20;;;;;;;6.49;100.00;100957.45;105690;1258;75402;-56